Time;durP1;ratioP1;P1;durP2;ratioP2;P2;SDS_P1;SDS_P2;PMS_P1;PMS_P2;Temp;Humidity;BMP_temperature;BMP_pressure;BME280_temperature;BME280_humidity;BME280_pressure;Samples;Min_cycle;Max_cycle;Signal;HPM_P1;HPM_P2
2023/10/30 00:00:38;;;;;;;7.13;4.95;;;;;;;7.38;100.00;95545.19;4984680;28;20047;-72
2023/10/30 00:03:04;;;;;;;6.63;4.90;;;;;;;7.56;100.00;95541.81;4981315;28;20038;-78
2023/10/30 00:05:30;;;;;;;10.48;4.88;;;;;;;7.44;100.00;95532.78;4985669;28;20046;-73
2023/10/30 00:07:55;;;;;;;8.68;4.60;;;;;;;7.51;100.00;95529.34;4985954;28;20069;-73
2023/10/30 00:10:21;;;;;;;9.85;5.45;;;;;;;7.70;100.00;95543.91;4958335;28;21156;-72
2023/10/30 00:12:47;;;;;;;9.30;5.10;;;;;;;7.51;100.00;95544.88;5000701;28;20096;-71
2023/10/30 00:15:12;;;;;;;10.15;5.18;;;;;;;7.43;100.00;95546.75;4979459;28;20065;-74
2023/10/30 00:17:38;;;;;;;12.55;5.63;;;;;;;7.46;100.00;95549.53;4992449;28;20042;-69
2023/10/30 00:20:05;;;;;;;11.57;4.85;;;;;;;7.48;100.00;95543.69;4975890;28;20053;-76
2023/10/30 00:22:31;;;;;;;8.93;4.90;;;;;;;7.41;100.00;95538.97;4986573;28;20378;-73
2023/10/30 00:24:56;;;;;;;8.55;6.10;;;;;;;7.60;100.00;95545.38;4984774;28;20049;-72
2023/10/30 00:27:21;;;;;;;6.97;3.72;;;;;;;7.66;100.00;95563.72;4981177;28;20077;-74
2023/10/30 00:29:47;;;;;;;7.75;4.05;;;;;;;7.47;100.00;95544.84;5019632;28;20038;-74
2023/10/30 00:32:12;;;;;;;10.32;5.60;;;;;;;7.53;100.00;95545.31;4985537;28;20061;-70
2023/10/30 00:34:39;;;;;;;10.43;5.60;;;;;;;7.67;100.00;95559.06;4969491;28;20034;-72
2023/10/30 00:37:04;;;;;;;6.20;4.50;;;;;;;7.63;100.00;95563.69;4981003;28;20038;-76
2023/10/30 00:39:32;;;;;;;8.18;4.25;;;;;;;7.52;100.00;95560.84;4984274;28;20121;-73
2023/10/30 00:41:59;;;;;;;6.20;3.95;;;;;;;7.50;100.00;95571.34;4985718;28;20038;-72
2023/10/30 00:44:25;;;;;;;6.45;4.22;;;;;;;7.47;100.00;95577.53;4980270;28;20380;-71
2023/10/30 00:46:53;;;;;;;13.52;4.63;;;;;;;7.52;100.00;95577.22;4985827;28;20620;-69
2023/10/30 00:49:19;;;;;;;10.02;4.28;;;;;;;7.44;100.00;95584.53;4971293;28;20133;-69
2023/10/30 00:51:44;;;;;;;8.07;4.20;;;;;;;7.30;100.00;95572.72;4980619;28;20189;-69
2023/10/30 00:54:10;;;;;;;7.78;4.38;;;;;;;7.37;100.00;95578.22;4991796;28;20584;-71
2023/10/30 00:56:35;;;;;;;7.72;4.43;;;;;;;7.53;100.00;95583.47;4984932;28;20188;-72
2023/10/30 00:59:00;;;;;;;8.68;4.63;;;;;;;7.53;100.00;95594.34;4976725;28;20038;-71
2023/10/30 01:01:26;;;;;;;7.30;4.32;;;;;;;7.22;100.00;95594.41;5055787;23;20109;-72
2023/10/30 01:03:51;;;;;;;5.93;4.38;;;;;;;7.22;100.00;95599.06;5041205;28;20033;-72
2023/10/30 01:06:17;;;;;;;6.95;4.60;;;;;;;7.32;100.00;95586.72;5039087;28;20052;-71
2023/10/30 01:08:42;;;;;;;9.15;4.30;;;;;;;7.41;100.00;95589.94;5041375;28;20486;-73
2023/10/30 01:11:07;;;;;;;9.80;4.50;;;;;;;7.22;100.00;95582.72;5040678;28;20040;-72
2023/10/30 01:13:33;;;;;;;6.82;3.92;;;;;;;7.18;100.00;95582.69;5043505;28;20045;-72
2023/10/30 01:15:58;;;;;;;6.55;4.43;;;;;;;7.01;100.00;95580.56;5043237;28;20099;-71
2023/10/30 01:18:24;;;;;;;10.57;4.80;;;;;;;7.11;100.00;95570.94;5038251;28;20049;-71
2023/10/30 01:20:49;;;;;;;10.35;4.07;;;;;;;7.15;100.00;95563.56;5050441;28;20474;-71
2023/10/30 01:23:15;;;;;;;8.35;4.68;;;;;;;7.14;100.00;95562.78;5036971;28;20040;-71
2023/10/30 01:25:41;;;;;;;6.22;4.40;;;;;;;7.20;100.00;95563.25;5049588;28;20064;-71
2023/10/30 01:28:06;;;;;;;7.07;4.47;;;;;;;7.18;100.00;95574.50;5038834;28;20080;-72
2023/10/30 01:30:33;;;;;;;8.30;4.82;;;;;;;6.86;100.00;95566.75;5043268;28;20552;-72
2023/10/30 01:32:59;;;;;;;10.82;5.03;;;;;;;6.79;100.00;95584.91;5044203;28;20041;-72
2023/10/30 01:35:25;;;;;;;7.95;4.30;;;;;;;6.73;100.00;95598.06;5038715;28;20501;-71
2023/10/30 01:37:50;;;;;;;9.85;4.72;;;;;;;6.54;100.00;95592.78;5042124;28;20494;-71
2023/10/30 01:40:16;;;;;;;10.13;4.55;;;;;;;6.66;100.00;95585.16;5028050;28;20037;-72
2023/10/30 01:42:41;;;;;;;7.80;4.85;;;;;;;6.87;100.00;95576.47;5033890;28;20041;-72
2023/10/30 01:45:07;;;;;;;8.57;4.90;;;;;;;7.03;100.00;95583.69;5038756;28;20041;-71
2023/10/30 01:47:33;;;;;;;7.50;4.32;;;;;;;7.02;100.00;95585.63;5041073;28;20503;-72
2023/10/30 01:50:00;;;;;;;10.32;4.25;;;;;;;7.02;100.00;95590.25;5041034;28;20048;-71
2023/10/30 01:52:28;;;;;;;7.40;4.53;;;;;;;6.78;100.00;95600.47;5044393;28;20079;-72
2023/10/30 01:54:54;;;;;;;12.07;4.68;;;;;;;6.73;100.00;95610.91;5044548;28;20149;-70
2023/10/30 01:57:22;;;;;;;11.07;4.85;;;;;;;6.58;100.00;95610.69;5037574;28;20570;-72
2023/10/30 01:59:51;;;;;;;7.10;4.22;;;;;;;6.59;100.00;95601.41;5042174;28;20051;-72
2023/10/30 02:02:21;;;;;;;10.73;4.80;;;;;;;6.61;100.00;95598.28;5037571;28;20479;-72
2023/10/30 02:04:47;;;;;;;9.00;5.38;;;;;;;6.74;100.00;95588.75;5042544;28;20065;-72
2023/10/30 02:07:13;;;;;;;9.25;4.85;;;;;;;6.81;100.00;95607.13;5046318;28;20037;-71
2023/10/30 02:09:39;;;;;;;8.77;4.70;;;;;;;6.61;100.00;95604.53;5042265;28;20040;-69
2023/10/30 02:12:05;;;;;;;13.90;4.68;;;;;;;6.40;100.00;95602.28;5038658;28;20048;-72
2023/10/30 02:14:30;;;;;;;9.45;4.60;;;;;;;6.46;100.00;95603.56;5049963;28;20575;-71
2023/10/30 02:16:56;;;;;;;6.70;4.57;;;;;;;6.29;100.00;95596.69;5043183;28;20136;-71
2023/10/30 02:19:23;;;;;;;7.25;4.55;;;;;;;5.99;100.00;95593.09;5037564;28;20965;-71
2023/10/30 02:21:54;;;;;;;9.00;4.55;;;;;;;6.01;100.00;95588.06;5041873;28;20069;-71
2023/10/30 02:24:21;;;;;;;8.23;4.80;;;;;;;6.23;100.00;95572.88;5030771;28;20080;-71
2023/10/30 02:26:50;;;;;;;7.70;4.68;;;;;;;6.48;100.00;95575.97;5048376;28;20041;-71
2023/10/30 02:29:17;;;;;;;10.73;4.43;;;;;;;6.64;100.00;95583.94;5038698;28;20037;-71
2023/10/30 02:31:43;;;;;;;9.75;5.18;;;;;;;6.67;100.00;95584.00;5034505;28;20055;-71
2023/10/30 02:34:10;;;;;;;7.28;4.68;;;;;;;6.60;100.00;95577.69;5036770;28;20585;-72
2023/10/30 02:36:35;;;;;;;5.80;4.47;;;;;;;6.36;100.00;95573.47;5041432;28;20041;-73
2023/10/30 02:39:04;;;;;;;10.15;4.78;;;;;;;6.10;100.00;95575.00;5041146;28;20037;-73
2023/10/30 02:41:31;;;;;;;6.65;4.43;;;;;;;6.12;100.00;95567.28;5041268;28;20045;-73
2023/10/30 02:44:00;;;;;;;8.52;4.47;;;;;;;6.26;100.00;95569.44;5038113;28;20044;-72
2023/10/30 02:46:26;;;;;;;9.20;4.40;;;;;;;6.21;100.00;95567.81;5037065;28;20056;-73
2023/10/30 02:48:51;;;;;;;9.55;4.72;;;;;;;6.26;100.00;95572.16;5048319;28;20095;-72
2023/10/30 02:51:18;;;;;;;11.88;4.72;;;;;;;6.41;100.00;95573.94;5037361;28;20041;-72
2023/10/30 02:53:43;;;;;;;8.23;4.47;;;;;;;6.34;100.00;95587.44;5020153;28;20528;-73
2023/10/30 02:56:09;;;;;;;6.47;4.53;;;;;;;6.31;100.00;95574.56;5038696;28;20127;-71
2023/10/30 02:58:34;;;;;;;9.80;4.85;;;;;;;6.36;100.00;95573.47;5040652;28;20051;-71
2023/10/30 03:01:00;;;;;;;6.60;3.97;;;;;;;6.38;100.00;95571.16;5047519;28;20041;-71
2023/10/30 03:03:26;;;;;;;8.20;5.25;;;;;;;6.25;100.00;95571.38;5037282;28;20140;-71
2023/10/30 03:05:51;;;;;;;7.97;5.00;;;;;;;6.30;100.00;95570.25;5041707;28;20110;-72
2023/10/30 03:08:17;;;;;;;9.50;3.95;;;;;;;6.45;100.00;95569.31;5036467;28;20090;-72
2023/10/30 03:10:42;;;;;;;10.77;4.82;;;;;;;6.43;100.00;95571.63;5039956;28;20040;-71
2023/10/30 03:13:08;;;;;;;8.68;4.30;;;;;;;6.08;100.00;95561.78;5038136;28;20048;-72
2023/10/30 03:15:33;;;;;;;9.27;4.75;;;;;;;5.72;100.00;95574.00;5040560;28;20102;-71
2023/10/30 03:17:58;;;;;;;11.20;6.68;;;;;;;5.58;100.00;95569.09;5046719;28;20056;-71
2023/10/30 03:20:24;;;;;;;12.90;6.47;;;;;;;5.39;100.00;95552.88;5039491;28;20053;-70
2023/10/30 03:22:49;;;;;;;8.60;5.38;;;;;;;5.39;100.00;95553.63;5049375;28;20048;-70
2023/10/30 03:25:15;;;;;;;10.70;5.25;;;;;;;5.42;100.00;95543.97;5036474;28;20140;-71
2023/10/30 03:27:41;;;;;;;8.23;4.97;;;;;;;5.47;100.00;95543.69;5039208;28;20044;-69
2023/10/30 03:30:07;;;;;;;12.82;6.47;;;;;;;5.44;100.00;95545.19;5036098;28;20045;-69
2023/10/30 03:32:32;;;;;;;8.25;5.53;;;;;;;5.44;100.00;95534.34;5041007;28;20045;-72
2023/10/30 03:35:01;;;;;;;7.03;4.90;;;;;;;5.46;100.00;95531.25;5047523;28;20052;-70
2023/10/30 03:37:26;;;;;;;9.35;5.28;;;;;;;5.48;100.00;95526.25;5041257;28;20048;-71
2023/10/30 03:39:52;;;;;;;9.30;5.38;;;;;;;5.57;100.00;95524.06;5047223;28;20072;-71
2023/10/30 03:42:18;;;;;;;11.27;5.57;;;;;;;5.47;100.00;95525.44;5037014;28;20056;-71
2023/10/30 03:44:44;;;;;;;9.13;5.25;;;;;;;5.41;100.00;95537.78;5033310;28;20209;-71
2023/10/30 03:47:09;;;;;;;8.75;5.63;;;;;;;5.35;100.00;95536.50;5036237;28;20127;-70
2023/10/30 03:49:35;;;;;;;7.25;5.20;;;;;;;5.36;100.00;95533.41;5048391;28;20643;-70
2023/10/30 03:52:00;;;;;;;9.38;5.40;;;;;;;5.36;100.00;95538.84;5047131;28;20052;-71
2023/10/30 03:54:25;;;;;;;7.28;4.82;;;;;;;5.41;100.00;95535.06;5044698;28;20079;-71
2023/10/30 03:56:51;;;;;;;10.07;5.35;;;;;;;5.41;100.00;95537.00;5045468;28;20107;-72
2023/10/30 03:59:16;;;;;;;7.97;5.05;;;;;;;5.37;100.00;95539.66;5021900;28;20484;-71
2023/10/30 04:01:42;;;;;;;5.65;4.60;;;;;;;5.41;100.00;95540.47;5049168;28;20049;-72
2023/10/30 04:04:07;;;;;;;10.30;4.53;;;;;;;5.50;100.00;95538.31;5023347;28;20048;-71
2023/10/30 04:06:35;;;;;;;15.48;4.85;;;;;;;5.49;100.00;95536.75;5041231;28;20057;-71
2023/10/30 04:09:03;;;;;;;7.82;4.53;;;;;;;5.38;100.00;95530.34;5045937;28;20033;-70
2023/10/30 04:11:29;;;;;;;7.85;4.30;;;;;;;5.44;100.00;95547.91;5026059;28;20065;-71
2023/10/30 04:13:55;;;;;;;6.50;4.45;;;;;;;5.52;100.00;95536.00;5040700;28;20048;-71
2023/10/30 04:16:20;;;;;;;17.48;4.57;;;;;;;5.60;100.00;95538.84;5019530;28;20045;-71
2023/10/30 04:18:46;;;;;;;7.38;3.90;;;;;;;5.46;100.00;95540.19;5044204;28;20045;-71
2023/10/30 04:21:12;;;;;;;10.98;4.20;;;;;;;5.28;100.00;95541.81;5040083;28;20210;-72
2023/10/30 04:23:38;;;;;;;12.45;4.40;;;;;;;5.32;100.00;95535.28;5049764;28;20522;-71
2023/10/30 04:26:04;;;;;;;6.22;3.53;;;;;;;5.45;100.00;95532.41;5018990;28;20044;-70
2023/10/30 04:28:30;;;;;;;6.55;3.95;;;;;;;5.48;100.00;95528.97;5047032;28;20053;-71
2023/10/30 04:30:55;;;;;;;9.75;4.00;;;;;;;5.46;100.00;95534.75;5047742;28;20186;-71
2023/10/30 04:33:21;;;;;;;6.78;3.90;;;;;;;5.35;100.00;95544.66;5040049;28;20487;-71
2023/10/30 04:35:46;;;;;;;6.75;3.65;;;;;;;5.27;100.00;95551.88;5048227;28;20048;-71
2023/10/30 04:38:12;;;;;;;7.78;4.07;;;;;;;4.95;100.00;95559.41;5036557;28;20049;-73
2023/10/30 04:40:37;;;;;;;9.73;4.53;;;;;;;4.94;100.00;95558.63;5047889;28;20057;-70
2023/10/30 04:43:02;;;;;;;7.45;4.40;;;;;;;5.07;100.00;95563.91;5040640;28;20083;-73
2023/10/30 04:45:28;;;;;;;7.88;4.20;;;;;;;5.10;100.00;95557.75;5041855;28;20689;-70
2023/10/30 04:47:53;;;;;;;11.70;4.10;;;;;;;5.07;100.00;95540.25;5043956;28;20409;-72
2023/10/30 04:50:19;;;;;;;6.68;4.18;;;;;;;5.01;100.00;95535.50;5039170;28;20537;-73
2023/10/30 04:52:44;;;;;;;7.57;3.78;;;;;;;4.96;100.00;95531.91;5017695;28;20514;-72
2023/10/30 04:55:10;;;;;;;8.82;4.18;;;;;;;4.92;100.00;95522.94;5033805;28;20043;-71
2023/10/30 04:57:36;;;;;;;14.00;4.70;;;;;;;5.00;100.00;95514.91;5048044;28;20049;-72
2023/10/30 05:00:04;;;;;;;8.95;4.65;;;;;;;5.08;100.00;95517.41;5026824;28;20053;-71
2023/10/30 05:02:30;;;;;;;10.35;5.28;;;;;;;4.98;100.00;95507.13;5049447;28;20440;-73
2023/10/30 05:04:55;;;;;;;6.63;4.43;;;;;;;4.94;100.00;95501.63;5044471;28;20391;-74
2023/10/30 05:07:21;;;;;;;8.38;4.70;;;;;;;5.15;100.00;95505.91;5016687;28;20044;-74
2023/10/30 05:09:46;;;;;;;7.25;5.00;;;;;;;5.12;100.00;95501.19;5044783;28;20045;-73
2023/10/30 05:12:12;;;;;;;7.88;4.47;;;;;;;5.06;100.00;95491.75;5034795;28;20041;-73
2023/10/30 05:14:37;;;;;;;7.40;4.78;;;;;;;5.12;100.00;95498.47;5033948;28;20048;-74
2023/10/30 05:17:03;;;;;;;8.25;4.93;;;;;;;5.19;100.00;95506.75;5041728;28;20044;-73
2023/10/30 05:19:29;;;;;;;9.68;4.88;;;;;;;5.10;100.00;95503.47;5041967;28;20140;-73
2023/10/30 05:21:54;;;;;;;7.50;4.78;;;;;;;5.01;100.00;95511.06;5045635;28;20041;-74
2023/10/30 05:24:23;;;;;;;7.45;4.38;;;;;;;4.97;100.00;95503.66;5032734;28;20045;-73
2023/10/30 05:26:48;;;;;;;10.30;4.70;;;;;;;4.86;100.00;95507.28;5038508;28;20049;-74
2023/10/30 05:29:14;;;;;;;9.40;5.00;;;;;;;4.75;100.00;95521.44;5033981;28;20102;-73
2023/10/30 05:31:42;;;;;;;13.23;8.00;;;;;;;4.65;100.00;95516.59;5043958;28;20045;-71
2023/10/30 05:34:08;;;;;;;8.85;6.60;;;;;;;4.59;100.00;95520.72;5041817;28;20044;-72
2023/10/30 05:36:34;;;;;;;8.88;5.43;;;;;;;4.65;100.00;95523.94;5051520;28;20051;-70
2023/10/30 05:38:59;;;;;;;12.45;5.45;;;;;;;4.63;100.00;95520.78;5043300;28;20143;-72
2023/10/30 05:41:24;;;;;;;15.88;6.80;;;;;;;4.48;100.00;95519.72;5041415;28;20056;-73
2023/10/30 05:43:50;;;;;;;8.82;5.18;;;;;;;4.52;100.00;95524.06;5036602;28;20040;-72
2023/10/30 05:46:15;;;;;;;10.63;6.28;;;;;;;4.55;100.00;95511.72;5033029;28;20140;-73
2023/10/30 05:48:41;;;;;;;11.43;7.55;;;;;;;4.43;100.00;95509.94;5044907;28;20048;-71
2023/10/30 05:51:06;;;;;;;8.45;6.30;;;;;;;4.42;100.00;95521.16;5036875;28;20135;-72
2023/10/30 05:53:31;;;;;;;12.00;5.93;;;;;;;4.43;100.00;95518.09;5053348;28;20048;-73
2023/10/30 05:55:57;;;;;;;10.63;6.07;;;;;;;4.41;100.00;95514.91;5053274;28;20484;-73
2023/10/30 05:58:22;;;;;;;7.63;5.38;;;;;;;4.45;100.00;95526.63;5039734;28;20053;-72
2023/10/30 06:00:47;;;;;;;8.85;5.68;;;;;;;4.55;100.00;95531.47;5047906;28;20037;-72
2023/10/30 06:03:14;;;;;;;10.45;6.03;;;;;;;4.61;100.00;95532.00;5029228;28;20125;-70
2023/10/30 06:05:40;;;;;;;9.38;5.47;;;;;;;4.64;100.00;95535.91;5043042;28;20063;-72
2023/10/30 06:08:05;;;;;;;10.75;5.10;;;;;;;4.60;100.00;95530.44;5052496;28;20041;-72
2023/10/30 06:10:31;;;;;;;7.05;5.18;;;;;;;4.59;100.00;95526.94;5025162;28;20048;-72
2023/10/30 06:12:56;;;;;;;7.95;5.20;;;;;;;4.75;100.00;95518.72;5024540;28;20132;-71
2023/10/30 06:15:22;;;;;;;11.05;5.65;;;;;;;4.31;100.00;95523.63;5045867;28;20496;-72
2023/10/30 06:17:48;;;;;;;9.35;5.97;;;;;;;4.28;100.00;95518.91;5036662;28;20041;-72
2023/10/30 06:20:13;;;;;;;8.23;5.80;;;;;;;4.13;100.00;95510.47;5037668;28;20044;-71
2023/10/30 06:22:39;;;;;;;8.20;5.32;;;;;;;3.88;100.00;95509.91;5050496;28;20057;-71
2023/10/30 06:25:05;;;;;;;12.93;7.10;;;;;;;3.95;100.00;95491.09;5031370;28;20484;-73
2023/10/30 06:27:32;;;;;;;11.30;6.95;;;;;;;4.11;100.00;95496.50;5053737;28;20068;-71
2023/10/30 06:29:58;;;;;;;9.27;6.00;;;;;;;4.46;100.00;95503.00;5053352;28;20063;-72
2023/10/30 06:32:24;;;;;;;11.35;6.63;;;;;;;4.64;100.00;95506.09;5046410;28;20131;-72
2023/10/30 06:34:49;;;;;;;7.50;6.07;;;;;;;4.72;100.00;95510.53;5042833;28;20079;-71
2023/10/30 06:37:15;;;;;;;10.30;6.00;;;;;;;4.72;100.00;95505.09;5037492;28;20047;-72
2023/10/30 06:39:41;;;;;;;13.55;6.00;;;;;;;4.77;100.00;95511.03;5044333;28;20041;-72
2023/10/30 06:42:07;;;;;;;9.57;6.25;;;;;;;4.71;100.00;95512.44;5042224;28;20047;-71
2023/10/30 06:44:32;;;;;;;9.90;5.80;;;;;;;4.75;100.00;95517.94;5040160;28;20114;-72
2023/10/30 06:46:59;;;;;;;9.48;6.03;;;;;;;4.79;100.00;95510.66;5043993;28;20072;-72
2023/10/30 06:49:24;;;;;;;9.57;5.65;;;;;;;5.00;100.00;95514.91;5024645;28;20597;-71
2023/10/30 06:51:50;;;;;;;9.48;6.55;;;;;;;5.02;100.00;95510.69;5024836;28;20577;-71
2023/10/30 06:54:15;;;;;;;10.93;7.57;;;;;;;5.11;100.00;95513.19;5046959;28;20033;-72
2023/10/30 06:56:41;;;;;;;13.95;7.10;;;;;;;5.33;100.00;95527.91;5061969;28;20044;-72
2023/10/30 06:59:09;;;;;;;10.40;6.38;;;;;;;5.66;100.00;95521.91;5019985;28;20044;-71
2023/10/30 07:01:45;;;;;;;11.38;6.75;;;;;;;5.98;100.00;95516.22;5044349;28;20045;-71
2023/10/30 07:04:11;;;;;;;8.02;6.20;;;;;;;6.12;100.00;95505.56;5026840;28;20041;-71
2023/10/30 07:06:38;;;;;;;7.70;5.72;;;;;;;6.96;100.00;95496.47;5021447;28;20525;-72
2023/10/30 07:09:06;;;;;;;7.57;5.50;;;;;;;7.66;100.00;95494.81;5036853;28;20052;-71
2023/10/30 07:11:36;;;;;;;7.05;4.75;;;;;;;8.16;100.00;95505.31;5033604;28;20042;-70
2023/10/30 07:14:03;;;;;;;7.75;4.03;;;;;;;8.67;100.00;95501.72;5042506;28;20044;-71
2023/10/30 07:16:33;;;;;;;12.30;3.95;;;;;;;9.30;100.00;95510.50;5036248;28;20518;-71
2023/10/30 07:18:59;;;;;;;6.95;3.30;;;;;;;9.52;100.00;95500.38;5039908;28;20056;-72
2023/10/30 07:21:26;;;;;;;12.07;2.88;;;;;;;9.59;100.00;95513.28;5029024;28;20504;-71
2023/10/30 07:23:52;;;;;;;9.07;2.97;;;;;;;9.96;100.00;95514.88;5040633;28;20049;-71
2023/10/30 07:26:18;;;;;;;7.50;3.80;;;;;;;10.24;100.00;95513.25;5035869;28;20135;-70
2023/10/30 07:28:44;;;;;;;5.07;2.80;;;;;;;10.48;100.00;95507.00;5032791;28;20045;-70
2023/10/30 07:31:10;;;;;;;6.07;3.63;;;;;;;8.22;100.00;95501.81;5031875;28;20041;-71
2023/10/30 07:33:35;;;;;;;4.78;3.83;;;;;;;8.29;100.00;95500.31;5046372;28;20110;-69
2023/10/30 07:36:01;;;;;;;11.82;3.85;;;;;;;9.03;100.00;95495.59;5043053;28;20049;-70
2023/10/30 07:38:30;;;;;;;7.65;3.40;;;;;;;9.60;100.00;95501.19;5013158;28;20121;-70
2023/10/30 07:40:56;;;;;;;8.40;3.67;;;;;;;9.49;100.00;95503.09;5034445;28;20136;-69
2023/10/30 07:43:21;;;;;;;7.68;3.83;;;;;;;8.69;100.00;95495.88;5035212;28;20796;-70
2023/10/30 07:45:47;;;;;;;7.70;4.78;;;;;;;8.56;100.00;95496.19;5040906;28;20049;-70
2023/10/30 07:48:13;;;;;;;7.20;3.70;;;;;;;9.00;100.00;95491.69;5035814;28;20064;-70
2023/10/30 07:50:39;;;;;;;5.25;4.00;;;;;;;9.28;100.00;95495.66;5041888;28;20151;-70
2023/10/30 07:53:05;;;;;;;6.97;3.50;;;;;;;9.43;100.00;95478.13;5031843;28;20096;-71
2023/10/30 07:55:41;;;;;;;6.53;3.65;;;;;;;9.74;100.00;95475.78;5022311;28;20049;-72
2023/10/30 07:58:16;;;;;;;5.25;3.63;;;;;;;9.97;100.00;95480.06;5030121;28;20041;-71
2023/10/30 08:00:41;;;;;;;7.30;3.75;;;;;;;9.99;100.00;95477.72;5029957;28;20048;-71
2023/10/30 08:03:07;;;;;;;4.20;3.38;;;;;;;9.68;100.00;95480.09;5049662;28;20071;-72
2023/10/30 08:05:32;;;;;;;9.50;4.28;;;;;;;9.85;100.00;95481.25;5039846;28;20049;-71
2023/10/30 08:07:58;;;;;;;10.18;4.20;;;;;;;10.47;100.00;95486.25;5038111;28;20037;-71
2023/10/30 08:10:24;;;;;;;5.75;3.72;;;;;;;11.24;100.00;95476.56;5036295;28;20059;-70
2023/10/30 08:12:50;;;;;;;6.28;4.63;;;;;;;10.82;100.00;95481.06;5022001;28;20045;-70
2023/10/30 08:15:15;;;;;;;8.15;3.88;;;;;;;10.87;100.00;95480.66;5049263;28;20041;-70
2023/10/30 08:17:40;;;;;;;8.38;3.83;;;;;;;11.21;100.00;95488.31;5041191;28;20057;-70
2023/10/30 08:20:06;;;;;;;6.13;3.95;;;;;;;11.23;100.00;95486.72;5038355;28;20660;-70
2023/10/30 08:22:32;;;;;;;5.20;3.58;;;;;;;11.67;100.00;95493.50;5065493;22;20045;-67
2023/10/30 08:24:59;;;;;;;8.23;3.95;;;;;;;12.18;100.00;95499.38;4982344;28;20041;-68
2023/10/30 08:27:24;;;;;;;8.02;4.20;;;;;;;12.96;100.00;95498.94;4975930;28;20567;-69
2023/10/30 08:29:50;;;;;;;15.68;5.65;;;;;;;13.61;100.00;95484.34;4983531;28;20041;-69
2023/10/30 08:32:15;;;;;;;6.90;4.07;;;;;;;13.86;100.00;95504.00;4971713;28;20111;-69
2023/10/30 08:34:41;;;;;;;17.63;6.90;;;;;;;14.17;100.00;95497.63;4972575;28;20380;-69
2023/10/30 08:37:06;;;;;;;6.90;3.75;;;;;;;13.93;100.00;95492.13;4982240;28;20054;-69
2023/10/30 08:39:31;;;;;;;11.25;3.95;;;;;;;13.70;100.00;95496.41;4982196;28;20054;-69
2023/10/30 08:41:57;;;;;;;12.07;3.42;;;;;;;14.01;100.00;95496.31;4972553;28;20527;-69
2023/10/30 08:44:22;;;;;;;5.32;3.10;;;;;;;14.32;100.00;95507.97;4965722;28;20329;-69
2023/10/30 08:46:48;;;;;;;11.35;3.45;;;;;;;14.01;100.00;95512.03;4973922;28;20046;-68
2023/10/30 08:49:13;;;;;;;6.88;3.53;;;;;;;13.66;100.00;95500.41;4972154;28;20106;-69
2023/10/30 08:51:42;;;;;;;11.65;5.00;;;;;;;13.76;100.00;95493.97;4966180;28;20042;-69
2023/10/30 08:54:08;;;;;;;9.50;4.50;;;;;;;13.73;100.00;95494.78;4959602;28;20046;-69
2023/10/30 08:56:34;;;;;;;9.00;4.10;;;;;;;13.55;100.00;95492.31;4963481;28;20043;-67
2023/10/30 08:59:00;;;;;;;5.80;3.90;;;;;;;13.69;100.00;95489.34;4975463;28;20043;-68
2023/10/30 09:01:26;;;;;;;7.70;4.18;;;;;;;13.39;100.00;95484.66;4965737;28;20717;-70
2023/10/30 09:03:52;;;;;;;10.05;5.10;;;;;;;13.20;100.00;95486.88;4976122;28;20061;-70
2023/10/30 09:06:18;;;;;;;12.13;5.13;;;;;;;12.94;100.00;95477.38;4962964;28;20712;-70
2023/10/30 09:08:44;;;;;;;9.68;4.45;;;;;;;13.18;100.00;95467.25;4964846;28;20051;-71
2023/10/30 09:11:10;;;;;;;9.55;4.68;;;;;;;13.01;100.00;95466.28;4964298;28;20043;-68
2023/10/30 09:13:36;;;;;;;8.38;5.03;;;;;;;12.80;100.00;95472.84;4970074;28;20057;-68
2023/10/30 09:16:02;;;;;;;9.45;5.03;;;;;;;12.23;100.00;95460.50;4968298;28;20042;-68
2023/10/30 09:18:27;;;;;;;15.88;7.07;;;;;;;11.83;100.00;95449.09;4971774;28;20498;-68
2023/10/30 09:20:52;;;;;;;8.85;6.22;;;;;;;11.96;100.00;95434.91;4972221;28;20050;-68
2023/10/30 09:23:18;;;;;;;21.05;11.35;;;;;;;11.78;100.00;95424.84;4966865;28;20038;-69
2023/10/30 09:25:43;;;;;;;10.48;7.07;;;;;;;11.99;100.00;95421.16;4964411;28;20145;-68
2023/10/30 09:28:09;;;;;;;14.70;7.10;;;;;;;12.31;100.00;95422.00;4973061;28;20038;-69
2023/10/30 09:30:34;;;;;;;20.42;12.85;;;;;;;12.63;100.00;95427.91;4967081;28;20055;-69
2023/10/30 09:33:00;;;;;;;16.83;10.02;;;;;;;12.79;100.00;95410.06;4989104;28;20049;-68
2023/10/30 09:35:30;;;;;;;12.15;6.47;;;;;;;12.70;100.00;95407.03;4972462;28;20051;-69
2023/10/30 09:37:56;;;;;;;8.35;6.15;;;;;;;12.60;100.00;95400.47;4970574;28;20524;-68
2023/10/30 09:40:26;;;;;;;10.00;5.72;;;;;;;12.68;100.00;95404.69;4969203;28;20792;-68
2023/10/30 09:42:52;;;;;;;7.85;6.03;;;;;;;12.68;100.00;95406.69;4967953;28;20534;-67
2023/10/30 09:45:22;;;;;;;13.52;5.43;;;;;;;12.86;100.00;95403.69;4964059;28;20046;-67
2023/10/30 09:47:53;;;;;;;15.63;6.07;;;;;;;12.91;100.00;95403.22;4963088;28;20174;-67
2023/10/30 09:50:19;;;;;;;9.25;5.68;;;;;;;12.68;100.00;95396.47;4958032;28;20046;-68
2023/10/30 09:52:55;;;;;;;24.65;7.47;;;;;;;12.79;100.00;95399.84;4971020;28;20117;-68
2023/10/30 09:55:24;;;;;;;24.75;12.65;;;;;;;12.86;100.00;95401.72;4968220;28;20042;-67
2023/10/30 09:57:51;;;;;;;17.65;9.27;;;;;;;12.91;100.00;95398.53;4987695;28;20071;-69
2023/10/30 10:00:17;;;;;;;8.32;5.45;;;;;;;12.60;100.00;95395.78;4978853;28;20039;-68
2023/10/30 10:02:44;;;;;;;9.45;5.75;;;;;;;12.70;100.00;95390.56;4974572;28;20460;-67
2023/10/30 10:05:10;;;;;;;6.93;5.70;;;;;;;12.70;100.00;95388.59;4957290;28;20047;-68
2023/10/30 10:07:36;;;;;;;13.90;5.68;;;;;;;12.81;100.00;95380.19;4963185;28;20461;-68
2023/10/30 10:10:04;;;;;;;7.45;4.68;;;;;;;12.87;100.00;95375.03;4979442;28;20051;-68
2023/10/30 10:12:30;;;;;;;9.18;5.78;;;;;;;12.98;100.00;95372.88;4959517;28;20054;-69
2023/10/30 10:14:57;;;;;;;9.18;5.15;;;;;;;13.09;100.00;95378.22;4967640;28;20053;-68
2023/10/30 10:17:23;;;;;;;10.65;6.00;;;;;;;13.06;100.00;95368.84;4964015;28;20204;-68
2023/10/30 10:19:48;;;;;;;10.13;5.90;;;;;;;13.06;100.00;95363.34;4972516;28;20125;-68
2023/10/30 10:22:28;;;;;;;8.95;6.05;;;;;;;13.02;100.00;95359.91;4969413;28;20097;-69
2023/10/30 10:24:53;;;;;;;6.75;5.10;;;;;;;12.98;100.00;95339.91;4967386;28;20046;-68
2023/10/30 10:27:19;;;;;;;8.27;5.32;;;;;;;13.04;100.00;95343.75;4964676;28;20031;-69
2023/10/30 10:29:51;;;;;;;14.55;5.47;;;;;;;13.16;100.00;95329.44;4968098;28;20075;-68
2023/10/30 10:32:16;;;;;;;10.30;5.05;;;;;;;13.29;100.00;95334.31;4964004;28;20576;-69
2023/10/30 10:34:42;;;;;;;15.57;5.43;;;;;;;13.13;100.00;95332.25;4970759;28;20046;-68
2023/10/30 10:37:16;;;;;;;9.27;5.45;;;;;;;12.98;100.00;95326.16;4968354;28;20051;-68
2023/10/30 10:39:53;;;;;;;8.45;5.18;;;;;;;13.14;100.00;95322.78;4973084;28;20437;-70
2023/10/30 10:42:26;;;;;;;7.70;5.10;;;;;;;13.00;100.00;95316.34;4956152;28;20040;-69
2023/10/30 10:44:53;;;;;;;12.32;4.65;;;;;;;12.94;100.00;95309.72;4962955;28;20050;-67
2023/10/30 10:47:20;;;;;;;8.65;5.28;;;;;;;13.12;100.00;95309.47;4957553;28;20138;-67
2023/10/30 10:49:46;;;;;;;12.45;5.57;;;;;;;12.99;100.00;95314.75;4964228;28;20046;-68
2023/10/30 10:52:14;;;;;;;8.73;5.97;;;;;;;12.90;100.00;95300.78;4958809;28;20050;-69
2023/10/30 10:55:02;;;;;;;9.25;4.90;;;;;;;12.96;100.00;95301.88;4961364;28;20047;-69
2023/10/30 10:57:34;;;;;;;7.50;4.88;;;;;;;12.97;100.00;95306.16;4966833;28;20520;-69
2023/10/30 11:00:06;;;;;;;11.98;4.90;;;;;;;13.20;100.00;95299.91;4980833;28;20504;-69
2023/10/30 11:02:37;;;;;;;9.10;4.55;;;;;;;13.12;100.00;95300.44;4966043;28;20051;-69
2023/10/30 11:05:05;;;;;;;11.80;5.28;;;;;;;12.86;100.00;95296.53;4958149;28;20047;-71
2023/10/30 11:07:35;;;;;;;9.27;5.97;;;;;;;12.75;100.00;95280.22;4994333;28;20505;-69
2023/10/30 11:10:05;;;;;;;6.90;4.97;;;;;;;12.81;100.00;95273.03;4963435;28;20126;-69
2023/10/30 11:12:30;;;;;;;5.57;4.75;;;;;;;13.07;100.00;95259.69;4971383;28;20453;-68
2023/10/30 11:14:55;;;;;;;10.98;5.28;;;;;;;13.20;100.00;95261.44;4974226;28;20065;-68
2023/10/30 11:17:21;;;;;;;6.53;4.63;;;;;;;13.17;100.00;95272.47;4962068;28;20058;-68
2023/10/30 11:19:46;;;;;;;7.30;5.07;;;;;;;12.94;100.00;95268.50;4954144;28;20073;-67
2023/10/30 11:22:11;;;;;;;7.22;4.43;;;;;;;12.91;100.00;95258.38;4969164;28;20085;-68
2023/10/30 11:24:40;;;;;;;7.80;5.00;;;;;;;13.03;100.00;95239.72;4962261;28;20042;-67